Barstow, Texas
Current Conditions -  °F | °C
As of 10:15 PM on Friday 19 Dec 2014 (Local Time) from KPEQ Reporting Station
Clear Clear  
Wind Chill:   Ceiling: Unl
Heat Index:   Visibility: 10mi
Dew Point: -1°   Wind: 7mph
Humidity: 67%   Direction: 220°SW
Pressure: 30.15"   Gusts: NA
Location:  31.46°N, 103.39°W
Report Text: KPEQ 200415Z AUTO 22006KT 10SM CLR 05/M01 A3015 RMK AO2 T00461011
Loading
Personal Weather Stations






























Interactive Weather Map New forecast layout! Learn more

10-Day Weather Forecast

Advertisements
Track Severe Weather on mobile